createdAt,value
2022-11-22T00:01:20.067Z,7.57
2022-11-22T00:03:46.569Z,8.05
2022-11-22T00:06:12.962Z,6.38
2022-11-22T00:08:39.407Z,5.35
2022-11-22T00:11:05.787Z,4.28
2022-11-22T00:13:32.122Z,4.90
2022-11-22T00:16:02.498Z,2.97
2022-11-22T00:18:29.521Z,3.05
2022-11-22T00:20:56.295Z,2.30
2022-11-22T00:23:22.816Z,2.92
2022-11-22T00:25:49.365Z,2.35
2022-11-22T00:28:15.795Z,2.25
2022-11-22T00:30:42.125Z,1.90
2022-11-22T00:33:08.475Z,2.13
2022-11-22T00:35:34.817Z,2.15
2022-11-22T00:38:01.181Z,1.88
2022-11-22T00:40:27.667Z,2.35
2022-11-22T00:42:54.006Z,2.20
2022-11-22T00:45:22.094Z,2.22
2022-11-22T00:47:48.433Z,2.55
2022-11-22T00:50:15.040Z,2.45
2022-11-22T00:52:41.435Z,1.98
2022-11-22T00:55:07.967Z,2.45
2022-11-22T00:57:34.318Z,1.67
2022-11-22T01:00:00.679Z,2.38
2022-11-22T01:02:27.052Z,2.05
2022-11-22T01:04:53.589Z,1.95
2022-11-22T01:07:20.013Z,2.30
2022-11-22T01:09:46.401Z,2.20
2022-11-22T01:12:12.761Z,2.35
2022-11-22T01:14:39.094Z,1.30
2022-11-22T01:17:05.608Z,1.83
2022-11-22T01:19:32.171Z,1.83
2022-11-22T01:21:58.823Z,2.35
2022-11-22T01:24:25.161Z,2.33
2022-11-22T01:26:54.958Z,1.60
2022-11-22T01:29:21.299Z,2.53
2022-11-22T01:31:47.655Z,1.63
2022-11-22T01:34:14.048Z,1.70
2022-11-22T01:36:40.603Z,2.35
2022-11-22T01:39:06.954Z,1.08
2022-11-22T01:41:33.538Z,2.50
2022-11-22T01:44:17.378Z,1.45
2022-11-22T01:46:43.707Z,1.83
2022-11-22T01:49:16.019Z,2.28
2022-11-22T01:51:44.093Z,2.00
2022-11-22T01:54:13.005Z,2.22
2022-11-22T01:56:40.143Z,1.65
2022-11-22T01:59:09.529Z,2.30
2022-11-22T02:01:36.341Z,2.28
2022-11-22T02:04:06.014Z,2.22
2022-11-22T02:06:46.889Z,2.40
2022-11-22T02:11:43.226Z,2.83
2022-11-22T02:14:10.374Z,1.90
2022-11-22T02:16:37.240Z,2.58
2022-11-22T02:19:04.899Z,2.13
2022-11-22T02:21:31.278Z,1.80
2022-11-22T02:24:16.712Z,2.58
2022-11-22T02:26:43.231Z,2.00
2022-11-22T02:29:09.663Z,1.65
2022-11-22T02:31:41.064Z,1.90
2022-11-22T02:34:11.250Z,2.28
2022-11-22T02:36:39.806Z,1.50
2022-11-22T02:39:07.179Z,2.78
2022-11-22T02:41:33.846Z,2.70
2022-11-22T02:44:00.216Z,1.95
2022-11-22T02:46:26.617Z,2.17
2022-11-22T02:48:52.993Z,2.08
2022-11-22T02:51:20.067Z,2.33
2022-11-22T02:53:47.566Z,1.60
2022-11-22T02:56:13.984Z,3.45
2022-11-22T02:58:40.324Z,3.22
2022-11-22T03:01:06.839Z,2.70
2022-11-22T03:03:33.377Z,1.92
2022-11-22T03:05:59.884Z,2.78
2022-11-22T03:08:28.395Z,2.15
2022-11-22T03:10:56.728Z,2.13
2022-11-22T03:13:23.095Z,2.70
2022-11-22T03:15:49.456Z,1.90
2022-11-22T03:18:15.807Z,2.42
2022-11-22T03:20:42.169Z,1.98
2022-11-22T03:23:08.583Z,2.90
2022-11-22T03:25:41.050Z,2.15
2022-11-22T03:28:07.753Z,1.15
2022-11-22T03:30:34.365Z,1.88
2022-11-22T03:33:00.727Z,1.75
2022-11-22T03:35:27.083Z,2.95
2022-11-22T03:37:53.410Z,2.83
2022-11-22T03:40:21.106Z,2.20
2022-11-22T03:42:49.825Z,1.33
2022-11-22T03:45:16.292Z,2.15
2022-11-22T03:47:42.659Z,1.77
2022-11-22T03:50:09.251Z,2.65
2022-11-22T03:52:35.681Z,1.70
2022-11-22T03:55:02.492Z,2.50
2022-11-22T03:57:28.845Z,1.98
2022-11-22T03:59:55.189Z,2.13
2022-11-22T04:02:21.554Z,1.67
2022-11-22T04:04:47.898Z,1.13
2022-11-22T04:07:14.301Z,1.90
2022-11-22T04:09:40.698Z,1.50
2022-11-22T04:12:07.178Z,2.30
2022-11-22T04:14:52.081Z,2.28
2022-11-22T04:17:38.517Z,1.92
2022-11-22T04:20:23.471Z,2.15
2022-11-22T04:23:00.186Z,2.03
2022-11-22T04:25:27.751Z,1.73
2022-11-22T04:27:54.528Z,1.85
2022-11-22T04:30:21.143Z,2.28
2022-11-22T04:32:47.724Z,1.67
2022-11-22T04:35:15.065Z,2.50
2022-11-22T04:37:42.151Z,2.17
2022-11-22T04:40:09.297Z,2.08
2022-11-22T04:42:56.341Z,2.08
2022-11-22T04:45:23.204Z,3.88
2022-11-22T04:48:01.484Z,2.75
2022-11-22T04:50:47.242Z,3.35
2022-11-22T04:53:14.096Z,2.60
2022-11-22T04:55:40.956Z,2.10
2022-11-22T04:58:07.341Z,1.65
2022-11-22T05:00:33.880Z,2.47
2022-11-22T05:03:03.881Z,2.90
2022-11-22T05:05:30.721Z,2.60
2022-11-22T05:08:00.232Z,2.75
2022-11-22T05:10:27.310Z,1.88
2022-11-22T05:12:54.076Z,2.55
2022-11-22T05:15:20.465Z,2.30
2022-11-22T05:17:46.823Z,2.83
2022-11-22T05:20:13.374Z,2.28
2022-11-22T05:22:58.072Z,2.35
2022-11-22T05:25:25.790Z,4.18
2022-11-22T05:27:55.610Z,2.58
2022-11-22T05:30:24.523Z,3.55
2022-11-22T05:32:51.048Z,2.83
2022-11-22T05:35:17.409Z,3.00
2022-11-22T05:37:43.786Z,2.67
2022-11-22T05:40:10.666Z,3.35
2022-11-22T05:42:37.053Z,3.42
2022-11-22T05:45:03.581Z,2.17
2022-11-22T05:47:33.627Z,3.30
2022-11-22T05:49:59.953Z,2.72
2022-11-22T05:52:26.323Z,3.15
2022-11-22T05:54:52.676Z,2.00
2022-11-22T05:57:19.005Z,3.95
2022-11-22T05:59:45.325Z,3.97
2022-11-22T06:02:11.763Z,4.40
2022-11-22T06:04:38.165Z,2.72
2022-11-22T06:07:09.755Z,1.92
2022-11-22T06:09:36.784Z,2.70
2022-11-22T06:12:03.280Z,2.10
2022-11-22T06:14:29.708Z,3.50
2022-11-22T06:16:56.119Z,3.67
2022-11-22T06:19:22.460Z,2.97
2022-11-22T06:21:48.821Z,3.92
2022-11-22T06:24:15.232Z,2.83
2022-11-22T06:26:41.668Z,3.72
2022-11-22T06:29:08.030Z,2.42
2022-11-22T06:31:34.444Z,3.67
2022-11-22T06:34:00.928Z,3.97
2022-11-22T06:36:31.363Z,1.98
2022-11-22T06:38:58.275Z,3.58
2022-11-22T06:41:25.715Z,3.92
2022-11-22T06:43:52.996Z,2.80
2022-11-22T06:46:21.061Z,3.22
2022-11-22T06:48:47.957Z,3.83
2022-11-22T06:51:15.571Z,3.53
2022-11-22T06:53:49.699Z,2.60
2022-11-22T06:56:20.488Z,3.30
2022-11-22T06:58:47.612Z,2.78
2022-11-22T07:01:15.438Z,3.13
2022-11-22T07:03:42.436Z,4.75
2022-11-22T07:06:09.913Z,9.13
2022-11-22T07:08:36.938Z,7.15
2022-11-22T07:11:07.743Z,5.75
2022-11-22T07:16:01.876Z,5.35
2022-11-22T07:18:28.492Z,4.95
2022-11-22T07:21:15.664Z,7.50
2022-11-22T07:23:43.032Z,7.05
2022-11-22T07:26:09.608Z,7.10
2022-11-22T07:28:36.547Z,8.20
2022-11-22T07:31:04.569Z,23.33
2022-11-22T07:33:30.913Z,24.98
2022-11-22T07:36:03.763Z,10.48
2022-11-22T07:38:30.091Z,25.77
2022-11-22T07:40:56.487Z,7.18
2022-11-22T07:43:23.027Z,7.97
2022-11-22T07:45:49.404Z,12.10
2022-11-22T07:48:15.801Z,4.97
2022-11-22T07:50:42.216Z,11.38
2022-11-22T07:53:09.423Z,9.23
2022-11-22T07:55:36.533Z,17.55
2022-11-22T07:58:03.135Z,7.97
2022-11-22T08:00:31.123Z,8.45
2022-11-22T08:02:58.257Z,5.88
2022-11-22T08:05:24.775Z,14.98
2022-11-22T08:07:52.018Z,11.38
2022-11-22T08:10:18.640Z,31.25
2022-11-22T08:12:45.255Z,13.73
2022-11-22T08:15:13.102Z,20.83
2022-11-22T08:17:41.706Z,9.73
2022-11-22T08:20:11.339Z,10.75
2022-11-22T08:22:38.612Z,7.57
2022-11-22T08:25:05.226Z,4.70
2022-11-22T08:27:31.571Z,5.80
2022-11-22T08:29:57.906Z,8.77
2022-11-22T08:32:24.377Z,9.68
2022-11-22T08:34:52.856Z,5.55
2022-11-22T08:37:19.195Z,5.70
2022-11-22T08:39:45.514Z,5.38
2022-11-22T08:42:11.875Z,16.27
2022-11-22T08:44:38.221Z,7.70
2022-11-22T08:47:04.565Z,5.55
2022-11-22T08:49:31.185Z,6.68
2022-11-22T08:51:57.749Z,7.18
2022-11-22T08:54:24.073Z,7.43
2022-11-22T08:56:50.525Z,8.50
2022-11-22T08:59:16.945Z,6.82
2022-11-22T09:01:43.436Z,6.38
2022-11-22T09:04:09.864Z,7.63
2022-11-22T09:09:36.987Z,6.68
2022-11-22T09:12:07.536Z,7.97
2022-11-22T09:14:34.016Z,4.78
2022-11-22T09:17:00.382Z,5.10
2022-11-22T09:19:26.813Z,6.78
2022-11-22T09:21:53.143Z,5.90
2022-11-22T09:24:19.479Z,5.70
2022-11-22T09:26:46.011Z,6.25
2022-11-22T09:29:12.402Z,5.32
2022-11-22T09:31:38.934Z,6.07
2022-11-22T09:34:05.285Z,4.63
2022-11-22T09:36:31.692Z,5.47
2022-11-22T09:38:58.216Z,6.72
2022-11-22T09:41:39.626Z,7.43
2022-11-22T09:44:21.377Z,4.60
2022-11-22T09:46:50.767Z,5.00
2022-11-22T09:49:20.091Z,5.40
2022-11-22T09:51:49.791Z,7.50
2022-11-22T09:54:20.442Z,8.32
2022-11-22T09:56:47.799Z,4.75
2022-11-22T09:59:20.497Z,4.25
2022-11-22T10:01:58.750Z,4.78
2022-11-22T10:04:34.460Z,4.97
2022-11-22T10:09:39.197Z,4.93
2022-11-22T10:12:05.519Z,3.97
2022-11-22T10:14:50.644Z,5.30
2022-11-22T10:17:26.184Z,4.43
2022-11-22T10:19:52.538Z,7.50
2022-11-22T10:22:19.221Z,5.00
2022-11-22T10:24:45.630Z,8.98
2022-11-22T10:27:13.761Z,4.05
2022-11-22T10:29:46.305Z,3.80
2022-11-22T10:32:24.904Z,4.60
2022-11-22T10:34:51.402Z,6.80
2022-11-22T10:37:20.545Z,4.93
2022-11-22T10:39:52.572Z,5.60
2022-11-22T10:42:21.900Z,7.00
2022-11-22T10:45:00.512Z,3.53
2022-11-22T10:47:45.609Z,4.45
2022-11-22T10:50:34.621Z,4.35
2022-11-22T10:53:03.945Z,5.28
2022-11-22T10:55:30.228Z,4.53
2022-11-22T10:57:56.608Z,6.43
2022-11-22T11:00:25.050Z,5.95
2022-11-22T11:02:59.771Z,4.72
2022-11-22T11:05:30.997Z,6.57
2022-11-22T11:08:15.273Z,4.32
2022-11-22T11:10:45.525Z,4.03
2022-11-22T11:13:22.218Z,3.83
2022-11-22T11:15:55.731Z,4.53
2022-11-22T11:18:25.729Z,4.78
2022-11-22T11:20:55.504Z,5.75
2022-11-22T11:23:21.923Z,4.53
2022-11-22T11:25:48.726Z,7.22
2022-11-22T11:28:22.762Z,3.92
2022-11-22T11:30:57.912Z,5.68
2022-11-22T11:33:28.454Z,5.43
2022-11-22T11:35:56.520Z,3.78
2022-11-22T11:38:26.481Z,5.00
2022-11-22T11:40:52.830Z,3.77
2022-11-22T11:43:20.577Z,5.05
2022-11-22T11:45:47.036Z,4.68
2022-11-22T11:48:27.117Z,4.65
2022-11-22T11:51:05.376Z,4.70
2022-11-22T11:53:31.799Z,5.47
2022-11-22T11:56:19.058Z,4.10
2022-11-22T11:58:50.623Z,4.57
2022-11-22T12:01:20.835Z,3.75
2022-11-22T12:03:52.659Z,4.88
2022-11-22T12:06:19.049Z,3.53
2022-11-22T12:08:45.457Z,4.68
2022-11-22T12:11:14.372Z,6.38
2022-11-22T12:14:12.228Z,5.00
2022-11-22T12:16:31.061Z,3.55
2022-11-22T12:19:18.066Z,4.47
2022-11-22T12:21:50.769Z,4.90
2022-11-22T12:27:10.300Z,5.38
2022-11-22T12:29:40.193Z,5.25
2022-11-22T12:32:16.271Z,4.28
2022-11-22T12:34:45.657Z,5.43
2022-11-22T12:37:17.260Z,5.13
2022-11-22T12:39:47.467Z,6.45
2022-11-22T12:42:22.697Z,6.28
2022-11-22T12:44:53.871Z,4.45
2022-11-22T12:47:22.432Z,4.53
2022-11-22T12:49:53.551Z,5.70
2022-11-22T12:52:25.296Z,4.03
2022-11-22T12:55:00.798Z,4.57
2022-11-22T12:57:36.200Z,4.20
2022-11-22T13:00:15.059Z,7.10
2022-11-22T13:02:45.313Z,5.05
2022-11-22T13:05:14.035Z,5.18
2022-11-22T13:07:53.985Z,3.35
2022-11-22T13:10:20.364Z,6.23
2022-11-22T13:12:47.926Z,4.00
2022-11-22T13:15:27.015Z,5.00
2022-11-22T13:17:53.800Z,4.03
2022-11-22T13:20:25.409Z,5.30
2022-11-22T13:23:06.886Z,3.10
2022-11-22T13:25:36.254Z,7.63
2022-11-22T13:28:05.550Z,3.90
2022-11-22T13:30:33.489Z,4.13
2022-11-22T13:33:00.888Z,5.95
2022-11-22T13:35:34.894Z,5.00
2022-11-22T13:38:13.600Z,4.30
2022-11-22T13:40:46.001Z,4.70
2022-11-22T13:43:21.462Z,4.70
2022-11-22T13:45:55.797Z,3.83
2022-11-22T13:48:42.136Z,6.75
2022-11-22T13:51:13.340Z,7.38
2022-11-22T13:53:42.627Z,6.03
2022-11-22T13:56:14.930Z,6.05
2022-11-22T13:58:52.179Z,6.63
2022-11-22T14:01:34.363Z,7.20
2022-11-22T14:04:15.942Z,6.18
2022-11-22T14:06:54.483Z,7.97
2022-11-22T14:09:23.828Z,5.28
2022-11-22T14:12:10.481Z,6.45
2022-11-22T14:14:55.889Z,6.60
2022-11-22T14:17:38.579Z,6.88
2022-11-22T14:20:22.173Z,8.10
2022-11-22T14:22:57.251Z,7.22
2022-11-22T14:25:35.129Z,6.78
2022-11-22T14:28:07.675Z,8.43
2022-11-22T14:30:53.598Z,8.15
2022-11-22T14:33:22.033Z,6.00
2022-11-22T14:36:06.718Z,8.27
2022-11-22T14:38:35.514Z,10.10
2022-11-22T14:41:20.677Z,6.95
2022-11-22T14:43:49.979Z,11.45
2022-11-22T14:46:51.058Z,10.23
2022-11-22T14:49:23.129Z,7.85
2022-11-22T14:51:53.098Z,8.45
2022-11-22T14:54:22.359Z,10.30
2022-11-22T14:56:49.194Z,9.63
2022-11-22T14:59:26.735Z,11.60
2022-11-22T15:02:12.087Z,9.73
2022-11-22T15:09:11.673Z,11.02
2022-11-22T15:09:13.452Z,8.13
2022-11-22T15:10:28.837Z,7.85
2022-11-22T15:13:10.448Z,10.73
2022-11-22T15:59:04.026Z,11.25
2022-11-22T16:01:37.987Z,14.73
2022-11-22T16:04:04.416Z,11.95
2022-11-22T16:06:31.241Z,14.73
2022-11-22T16:08:59.217Z,13.18
2022-11-22T16:11:32.127Z,12.05
2022-11-22T16:14:02.335Z,16.35
2022-11-22T16:16:31.457Z,12.10
2022-11-22T16:19:33.554Z,13.93
2022-11-22T16:22:01.363Z,12.40
2022-11-22T16:24:31.808Z,12.05
2022-11-22T16:26:59.561Z,12.70
2022-11-22T16:29:30.397Z,12.00
2022-11-22T16:32:03.365Z,14.73
2022-11-22T16:34:29.789Z,16.33
2022-11-22T16:36:56.175Z,15.52
2022-11-22T16:39:23.869Z,15.43
2022-11-22T16:41:50.181Z,17.88
2022-11-22T16:44:17.698Z,12.68
2022-11-22T16:46:44.015Z,15.75
2022-11-22T16:49:18.160Z,14.23
2022-11-22T16:51:44.787Z,14.32
2022-11-22T16:54:13.065Z,16.92
2022-11-22T16:56:39.419Z,14.82
2022-11-22T16:59:12.194Z,17.70
2022-11-22T17:01:42.714Z,19.42
2022-11-22T17:04:29.655Z,15.75
2022-11-22T17:06:56.163Z,16.88
2022-11-22T17:09:22.602Z,14.02
2022-11-22T17:11:49.256Z,14.43
2022-11-22T17:14:16.756Z,15.20
2022-11-22T17:16:43.734Z,16.35
2022-11-22T17:19:24.227Z,15.18
2022-11-22T17:21:56.681Z,17.02
2022-11-22T17:24:23.948Z,16.15
2022-11-22T17:26:50.323Z,16.38
2022-11-22T17:29:35.238Z,18.23
2022-11-22T17:32:03.209Z,25.02
2022-11-22T17:34:29.876Z,20.63
2022-11-22T17:36:56.468Z,19.15
2022-11-22T17:39:22.818Z,17.55
2022-11-22T17:41:49.513Z,17.02
2022-11-22T17:44:17.365Z,16.10
2022-11-22T17:46:47.333Z,23.13
2022-11-22T17:49:16.411Z,16.30
2022-11-22T17:51:45.215Z,19.13
2022-11-22T17:54:11.659Z,20.38
2022-11-22T17:56:38.102Z,20.58
2022-11-22T17:59:05.013Z,16.40
2022-11-22T18:01:31.833Z,16.45
2022-11-22T18:03:58.266Z,19.23
2022-11-22T18:06:26.564Z,15.35
2022-11-22T18:08:53.071Z,18.05
2022-11-22T18:11:21.609Z,17.17
2022-11-22T18:13:48.053Z,16.33
2022-11-22T18:16:18.441Z,19.80
2022-11-22T18:19:00.546Z,20.20
2022-11-22T18:21:29.262Z,16.75
2022-11-22T18:23:56.597Z,15.80
2022-11-22T18:26:38.751Z,17.30
2022-11-22T18:29:40.755Z,16.75
2022-11-22T18:31:54.602Z,18.70
2022-11-22T18:34:21.820Z,17.02
2022-11-22T18:36:59.381Z,19.10
2022-11-22T18:39:27.917Z,15.25
2022-11-22T18:41:54.509Z,16.13
2022-11-22T18:44:20.875Z,16.83
2022-11-22T18:46:47.382Z,19.13
2022-11-22T18:49:14.022Z,18.50
2022-11-22T18:51:40.580Z,19.77
2022-11-22T18:54:10.631Z,16.05
2022-11-22T18:56:40.107Z,18.63
2022-11-22T18:59:07.753Z,16.53
2022-11-22T19:01:37.153Z,12.93
2022-11-22T19:04:04.052Z,21.77
2022-11-22T19:06:30.895Z,16.92
2022-11-22T19:08:57.364Z,15.52
2022-11-22T19:11:23.776Z,16.05
2022-11-22T19:13:50.421Z,16.27
2022-11-22T19:16:17.975Z,20.77
2022-11-22T19:18:44.926Z,21.63
2022-11-22T19:21:12.812Z,19.48
2022-11-22T19:23:39.508Z,16.45
2022-11-22T19:26:06.844Z,16.83
2022-11-22T19:28:33.223Z,17.52
2022-11-22T19:31:25.747Z,20.10
2022-11-22T19:33:52.194Z,18.73
2022-11-22T19:36:26.414Z,14.68
2022-11-22T19:38:57.549Z,16.50
2022-11-22T19:41:24.411Z,20.23
2022-11-22T19:43:51.351Z,19.35
2022-11-22T19:46:20.739Z,19.63
2022-11-22T19:48:54.467Z,15.73
2022-11-22T19:51:21.394Z,16.63
2022-11-22T19:53:48.077Z,17.02
2022-11-22T19:56:18.319Z,18.23
2022-11-22T19:58:49.258Z,19.08
2022-11-22T20:03:43.822Z,19.35
2022-11-22T20:06:11.853Z,15.25
2022-11-22T20:08:38.539Z,18.08
2022-11-22T20:11:04.912Z,18.08
2022-11-22T20:13:34.014Z,22.73
2022-11-22T20:16:05.105Z,21.23
2022-11-22T20:18:31.420Z,20.33
2022-11-22T20:21:01.986Z,20.98
2022-11-22T20:23:29.116Z,22.13
2022-11-22T20:26:00.452Z,30.25
2022-11-22T20:28:26.775Z,29.48
2022-11-22T20:30:53.152Z,19.85
2022-11-22T20:33:19.498Z,22.17
2022-11-22T20:35:45.955Z,18.67
2022-11-22T20:38:13.329Z,19.50
2022-11-22T20:40:39.713Z,21.67
2022-11-22T20:43:06.023Z,19.95
2022-11-22T20:45:32.733Z,18.35
2022-11-22T20:47:59.077Z,18.77
2022-11-22T20:50:25.397Z,20.85
2022-11-22T20:52:52.367Z,21.70
2022-11-22T20:55:19.494Z,20.75
2022-11-22T20:57:45.840Z,19.27
2022-11-22T21:00:13.337Z,22.15
2022-11-22T21:02:39.681Z,21.30
2022-11-22T21:05:06.651Z,24.63
2022-11-22T21:07:33.530Z,17.60
2022-11-22T21:09:59.871Z,22.08
2022-11-22T21:12:26.696Z,22.27
2022-11-22T21:14:53.916Z,18.95
2022-11-22T21:17:41.983Z,18.50
2022-11-22T21:20:06.859Z,18.83
2022-11-22T21:22:33.391Z,19.00
2022-11-22T21:24:59.816Z,18.08
2022-11-22T21:27:26.176Z,16.15
2022-11-22T21:29:52.523Z,25.60
2022-11-22T21:32:18.862Z,18.20
2022-11-22T21:34:45.216Z,23.05
2022-11-22T21:37:11.640Z,19.73
2022-11-22T21:39:38.011Z,19.40
2022-11-22T21:42:04.442Z,22.58
2022-11-22T21:44:31.094Z,22.75
2022-11-22T21:46:57.573Z,20.02
2022-11-22T21:49:23.940Z,22.42
2022-11-22T21:51:50.383Z,16.20
2022-11-22T21:54:16.783Z,18.58
2022-11-22T21:56:44.848Z,24.42
2022-11-22T21:59:11.737Z,19.20
2022-11-22T22:01:38.300Z,23.20
2022-11-22T22:04:05.152Z,21.38
2022-11-22T22:06:31.604Z,18.83
2022-11-22T22:08:57.956Z,18.88
2022-11-22T22:11:24.352Z,26.40
2022-11-22T22:13:52.114Z,20.77
2022-11-22T22:16:19.380Z,21.85
2022-11-22T22:18:46.189Z,25.15
2022-11-22T22:21:12.945Z,24.27
2022-11-22T22:23:40.143Z,23.70
2022-11-22T22:26:07.742Z,21.02
2022-11-22T22:28:35.277Z,25.95
2022-11-22T22:31:08.759Z,22.75
2022-11-22T22:33:36.554Z,22.70
2022-11-22T22:36:03.584Z,27.23
2022-11-22T22:38:30.882Z,26.48
2022-11-22T22:40:58.682Z,27.92
2022-11-22T22:43:25.511Z,25.95
2022-11-22T22:45:51.937Z,22.67
2022-11-22T22:48:20.695Z,25.67
2022-11-22T22:50:47.077Z,27.88
2022-11-22T22:53:13.399Z,31.27
2022-11-22T22:55:39.782Z,27.17
2022-11-22T22:58:07.021Z,27.40
2022-11-22T23:00:34.883Z,27.35
2022-11-22T23:03:01.299Z,24.52
2022-11-22T23:05:27.717Z,27.95
2022-11-22T23:07:54.147Z,26.27
2022-11-22T23:10:20.563Z,23.50
2022-11-22T23:12:46.876Z,26.35
2022-11-22T23:15:13.192Z,27.88
2022-11-22T23:17:39.510Z,27.25
2022-11-22T23:20:06.181Z,26.02
2022-11-22T23:22:32.598Z,28.58
2022-11-22T23:24:58.975Z,32.92
2022-11-22T23:27:25.410Z,30.30
2022-11-22T23:29:54.388Z,28.02
2022-11-22T23:32:20.748Z,33.63
2022-11-22T23:34:47.248Z,29.90
2022-11-22T23:37:13.616Z,28.45
2022-11-22T23:39:39.983Z,23.33
2022-11-22T23:42:06.404Z,30.58
2022-11-22T23:44:32.750Z,29.52
2022-11-22T23:46:59.097Z,27.20
2022-11-22T23:49:25.416Z,32.70
2022-11-22T23:51:51.925Z,28.48
2022-11-22T23:54:18.261Z,26.92
2022-11-22T23:56:44.673Z,32.40
2022-11-22T23:59:11.047Z,27.45
